sensor_id;sensor_type;location;lat;lon;timestamp;temperature;humidity
1958;DHT22;979;51.076;13.748;2022-12-18T01:13:20;-5.60;60.80
1958;DHT22;979;51.076;13.748;2022-12-18T01:16:48;-5.70;60.70
1958;DHT22;979;51.076;13.748;2022-12-18T02:48:45;-5.80;61.10
1958;DHT22;979;51.076;13.748;2022-12-18T02:51:32;-5.60;61.40
1958;DHT22;979;51.076;13.748;2022-12-18T02:54:55;-5.50;61.50
1958;DHT22;979;51.076;13.748;2022-12-18T02:58:04;-5.40;61.50
1958;DHT22;979;51.076;13.748;2022-12-18T03:00:51;-5.20;61.70
1958;DHT22;979;51.076;13.748;2022-12-18T03:07:38;-5.10;61.40
1958;DHT22;979;51.076;13.748;2022-12-18T03:14:07;-5.00;61.40
1958;DHT22;979;51.076;13.748;2022-12-18T03:16:39;-5.20;61.30
1958;DHT22;979;51.076;13.748;2022-12-18T03:20:03;-5.10;61.20
1958;DHT22;979;51.076;13.748;2022-12-18T03:23:09;-5.00;61.40
1958;DHT22;979;51.076;13.748;2022-12-18T03:26:09;-5.00;61.30
1958;DHT22;979;51.076;13.748;2022-12-18T03:29:18;-5.00;61.90
1958;DHT22;979;51.076;13.748;2022-12-18T03:32:16;-5.00;61.20
1958;DHT22;979;51.076;13.748;2022-12-18T03:37:53;-5.10;61.10
1958;DHT22;979;51.076;13.748;2022-12-18T03:40:44;-4.90;61.40
1958;DHT22;979;51.076;13.748;2022-12-18T03:43:37;-5.00;61.20
1958;DHT22;979;51.076;13.748;2022-12-18T03:46:36;-5.10;61.10
1958;DHT22;979;51.076;13.748;2022-12-18T03:49:24;-4.90;61.50
1958;DHT22;979;51.076;13.748;2022-12-18T03:52:22;-4.90;61.30
1958;DHT22;979;51.076;13.748;2022-12-18T03:55:30;-4.90;61.20
1958;DHT22;979;51.076;13.748;2022-12-18T03:58:23;-4.80;61.10
1958;DHT22;979;51.076;13.748;2022-12-18T04:01:15;-4.90;60.70
1958;DHT22;979;51.076;13.748;2022-12-18T04:04:46;-4.80;61.00
1958;DHT22;979;51.076;13.748;2022-12-18T04:07:47;-5.10;60.30
1958;DHT22;979;51.076;13.748;2022-12-18T04:10:37;-5.20;60.20
1958;DHT22;979;51.076;13.748;2022-12-18T04:24:23;-5.80;59.80
1958;DHT22;979;51.076;13.748;2022-12-18T04:27:10;-5.70;60.10
1958;DHT22;979;51.076;13.748;2022-12-18T04:29:43;-5.80;60.20
1958;DHT22;979;51.076;13.748;2022-12-18T04:32:21;-5.90;60.10
1958;DHT22;979;51.076;13.748;2022-12-18T09:37:57;-4.00;61.70
1958;DHT22;979;51.076;13.748;2022-12-18T09:49:02;-3.60;62.30
1958;DHT22;979;51.076;13.748;2022-12-18T09:59:30;-3.10;62.70
1958;DHT22;979;51.076;13.748;2022-12-18T10:02:56;-2.80;63.50
1958;DHT22;979;51.076;13.748;2022-12-18T10:28:00;-1.20;64.50
1958;DHT22;979;51.076;13.748;2022-12-18T10:31:27;-1.10;64.60
1958;DHT22;979;51.076;13.748;2022-12-18T10:37:31;-0.80;64.40
1958;DHT22;979;51.076;13.748;2022-12-18T12:12:24;7.50;59.10
1958;DHT22;979;51.076;13.748;2022-12-18T12:16:10;8.30;58.90
1958;DHT22;979;51.076;13.748;2022-12-18T12:20:29;9.30;58.40
1958;DHT22;979;51.076;13.748;2022-12-18T12:23:05;9.60;56.40
1958;DHT22;979;51.076;13.748;2022-12-18T12:26:21;9.50;55.80
1958;DHT22;979;51.076;13.748;2022-12-18T12:29:47;10.00;55.10
1958;DHT22;979;51.076;13.748;2022-12-18T12:33:16;10.40;54.50
1958;DHT22;979;51.076;13.748;2022-12-18T12:36:57;11.00;53.80
1958;DHT22;979;51.076;13.748;2022-12-18T12:40:23;11.30;53.10
1958;DHT22;979;51.076;13.748;2022-12-18T12:43:45;11.40;52.30
1958;DHT22;979;51.076;13.748;2022-12-18T12:47:13;11.40;52.20
1958;DHT22;979;51.076;13.748;2022-12-18T12:50:13;10.90;51.60
1958;DHT22;979;51.076;13.748;2022-12-18T12:53:59;10.30;50.90
1958;DHT22;979;51.076;13.748;2022-12-18T12:57:07;9.00;51.70
1958;DHT22;979;51.076;13.748;2022-12-18T13:03:49;6.50;51.50
1958;DHT22;979;51.076;13.748;2022-12-18T13:07:10;5.20;51.80
1958;DHT22;979;51.076;13.748;2022-12-18T13:10:49;4.30;52.10
1958;DHT22;979;51.076;13.748;2022-12-18T13:14:18;3.50;52.80
1958;DHT22;979;51.076;13.748;2022-12-18T13:18:05;2.70;52.80
1958;DHT22;979;51.076;13.748;2022-12-18T13:24:36;2.00;53.60
1958;DHT22;979;51.076;13.748;2022-12-18T13:28:12;1.60;53.80
1958;DHT22;979;51.076;13.748;2022-12-18T13:30:53;1.20;54.00
1958;DHT22;979;51.076;13.748;2022-12-18T13:40:58;0.90;54.60
1958;DHT22;979;51.076;13.748;2022-12-18T13:44:29;1.10;55.10
1958;DHT22;979;51.076;13.748;2022-12-18T13:47:32;0.60;55.00
1958;DHT22;979;51.076;13.748;2022-12-18T13:50:27;0.80;55.30
1958;DHT22;979;51.076;13.748;2022-12-18T13:53:18;0.80;55.60
1958;DHT22;979;51.076;13.748;2022-12-18T13:56:08;0.80;55.50
1958;DHT22;979;51.076;13.748;2022-12-18T13:59:21;0.70;55.70
1958;DHT22;979;51.076;13.748;2022-12-18T14:01:56;0.80;56.00
1958;DHT22;979;51.076;13.748;2022-12-18T14:04:38;0.70;55.80
1958;DHT22;979;51.076;13.748;2022-12-18T14:07:45;0.60;55.90
1958;DHT22;979;51.076;13.748;2022-12-18T14:17:43;0.20;55.90
1958;DHT22;979;51.076;13.748;2022-12-18T14:20:31;0.20;56.20
1958;DHT22;979;51.076;13.748;2022-12-18T14:35:58;-0.30;56.30
1958;DHT22;979;51.076;13.748;2022-12-18T14:38:35;-0.30;56.70
1958;DHT22;979;51.076;13.748;2022-12-18T14:41:17;-0.40;56.70
1958;DHT22;979;51.076;13.748;2022-12-18T14:44:12;-0.70;56.80
1958;DHT22;979;51.076;13.748;2022-12-18T14:47:12;-0.60;56.80
1958;DHT22;979;51.076;13.748;2022-12-18T14:54:14;-0.80;57.10
1958;DHT22;979;51.076;13.748;2022-12-18T14:57:03;-1.00;57.00
1958;DHT22;979;51.076;13.748;2022-12-18T14:59:50;-0.70;57.60
1958;DHT22;979;51.076;13.748;2022-12-18T15:02:35;-1.00;57.50
1958;DHT22;979;51.076;13.748;2022-12-18T15:05:21;-0.90;57.80
1958;DHT22;979;51.076;13.748;2022-12-18T15:08:37;-1.30;57.60
1958;DHT22;979;51.076;13.748;2022-12-18T15:11:56;-1.20;57.60
1958;DHT22;979;51.076;13.748;2022-12-18T15:14:53;-1.30;57.70
1958;DHT22;979;51.076;13.748;2022-12-18T15:17:45;-1.20;58.20
1958;DHT22;979;51.076;13.748;2022-12-18T15:20:39;-1.40;58.20
1958;DHT22;979;51.076;13.748;2022-12-18T15:23:24;-1.40;58.20
1958;DHT22;979;51.076;13.748;2022-12-18T15:26:15;-1.30;58.30
1958;DHT22;979;51.076;13.748;2022-12-18T15:32:36;-1.70;58.30
1958;DHT22;979;51.076;13.748;2022-12-18T15:36:08;-1.60;58.60
1958;DHT22;979;51.076;13.748;2022-12-18T15:38:56;-1.70;58.50
1958;DHT22;979;51.076;13.748;2022-12-18T15:42:57;-1.60;58.70
1958;DHT22;979;51.076;13.748;2022-12-18T15:46:20;-1.70;58.70
1958;DHT22;979;51.076;13.748;2022-12-18T15:49:11;-1.50;59.30
1958;DHT22;979;51.076;13.748;2022-12-18T15:52:01;-2.00;58.80
1958;DHT22;979;51.076;13.748;2022-12-18T15:55:25;-1.80;59.00
1958;DHT22;979;51.076;13.748;2022-12-18T15:58:17;-1.80;59.10
1958;DHT22;979;51.076;13.748;2022-12-18T16:01:20;-1.80;59.40
1958;DHT22;979;51.076;13.748;2022-12-18T16:09:00;-2.00;59.40
1958;DHT22;979;51.076;13.748;2022-12-18T16:15:25;-1.90;59.60
1958;DHT22;979;51.076;13.748;2022-12-18T16:18:39;-1.90;59.90
1958;DHT22;979;51.076;13.748;2022-12-18T16:23:45;-1.70;60.10
